sensor_id;sensor_type;location;lat;lon;timestamp;pressure;altitude;pressure_sealevel;temperature;humidity
20710;BME280;10516;51.518;9.864;2024-03-25T00:02:00;97537.31;;;4.95;87.39
20710;BME280;10516;51.518;9.864;2024-03-25T00:04:25;97547.59;;;4.75;87.62
20710;BME280;10516;51.518;9.864;2024-03-25T00:06:51;97550.38;;;4.85;87.79
20710;BME280;10516;51.518;9.864;2024-03-25T00:09:17;97527.19;;;4.71;87.97
20710;BME280;10516;51.518;9.864;2024-03-25T00:11:43;97551.38;;;5.01;87.85
20710;BME280;10516;51.518;9.864;2024-03-25T00:14:08;97477.50;;;4.51;86.85
20710;BME280;10516;51.518;9.864;2024-03-25T00:16:34;97508.13;;;4.69;87.09
20710;BME280;10516;51.518;9.864;2024-03-25T00:19:00;97551.53;;;4.73;88.00
20710;BME280;10516;51.518;9.864;2024-03-25T00:21:26;97555.22;;;4.72;87.78
20710;BME280;10516;51.518;9.864;2024-03-25T00:23:51;97575.09;;;4.96;87.76
20710;BME280;10516;51.518;9.864;2024-03-25T00:26:17;97573.25;;;4.96;87.68
20710;BME280;10516;51.518;9.864;2024-03-25T00:28:42;97529.91;;;4.76;88.03
20710;BME280;10516;51.518;9.864;2024-03-25T00:31:09;97571.91;;;4.94;87.22
20710;BME280;10516;51.518;9.864;2024-03-25T00:33:34;97557.63;;;4.73;88.53
20710;BME280;10516;51.518;9.864;2024-03-25T00:35:59;97580.97;;;4.98;88.84
20710;BME280;10516;51.518;9.864;2024-03-25T00:38:25;97592.09;;;5.00;88.37
20710;BME280;10516;51.518;9.864;2024-03-25T00:40:50;97556.00;;;4.72;88.38
20710;BME280;10516;51.518;9.864;2024-03-25T00:43:16;97504.00;;;4.56;87.24
20710;BME280;10516;51.518;9.864;2024-03-25T00:45:41;97559.91;;;4.86;87.56
20710;BME280;10516;51.518;9.864;2024-03-25T00:48:07;97531.09;;;4.85;87.35
20710;BME280;10516;51.518;9.864;2024-03-25T00:50:33;97589.13;;;5.13;86.98
20710;BME280;10516;51.518;9.864;2024-03-25T00:52:58;97557.03;;;4.88;86.78
20710;BME280;10516;51.518;9.864;2024-03-25T00:55:23;97593.50;;;5.07;87.59
20710;BME280;10516;51.518;9.864;2024-03-25T00:57:50;97561.66;;;4.81;87.96
20710;BME280;10516;51.518;9.864;2024-03-25T01:00:16;97582.25;;;4.95;87.61
20710;BME280;10516;51.518;9.864;2024-03-25T01:02:42;97561.13;;;4.79;87.39
20710;BME280;10516;51.518;9.864;2024-03-25T01:05:08;97599.13;;;5.11;87.65
20710;BME280;10516;51.518;9.864;2024-03-25T01:07:34;97581.19;;;4.96;86.91
20710;BME280;10516;51.518;9.864;2024-03-25T01:09:59;97595.59;;;5.05;86.69
20710;BME280;10516;51.518;9.864;2024-03-25T01:12:25;97593.22;;;5.04;86.88
20710;BME280;10516;51.518;9.864;2024-03-25T01:14:51;97484.72;;;4.22;87.14
20710;BME280;10516;51.518;9.864;2024-03-25T01:17:16;97597.41;;;5.00;87.06
20710;BME280;10516;51.518;9.864;2024-03-25T01:19:42;97510.06;;;4.56;86.24
20710;BME280;10516;51.518;9.864;2024-03-25T01:22:08;97600.50;;;4.97;87.19
20710;BME280;10516;51.518;9.864;2024-03-25T01:24:34;97525.31;;;4.49;86.72
20710;BME280;10516;51.518;9.864;2024-03-25T01:27:00;97606.59;;;4.97;86.79
20710;BME280;10516;51.518;9.864;2024-03-25T01:29:25;97588.03;;;4.92;86.53
20710;BME280;10516;51.518;9.864;2024-03-25T01:31:51;97610.06;;;4.98;86.60
20710;BME280;10516;51.518;9.864;2024-03-25T01:34:16;97563.88;;;4.67;87.07
20710;BME280;10516;51.518;9.864;2024-03-25T01:36:42;97550.09;;;4.65;86.09
20710;BME280;10516;51.518;9.864;2024-03-25T01:39:07;97540.34;;;4.49;86.98
20710;BME280;10516;51.518;9.864;2024-03-25T01:41:33;97589.84;;;4.92;86.15
20710;BME280;10516;51.518;9.864;2024-03-25T01:43:59;97606.28;;;4.94;87.43
20710;BME280;10516;51.518;9.864;2024-03-25T01:46:24;97613.03;;;4.85;86.53
20710;BME280;10516;51.518;9.864;2024-03-25T01:48:50;97496.19;;;4.11;86.45
20710;BME280;10516;51.518;9.864;2024-03-25T01:51:18;97612.53;;;4.88;86.63
20710;BME280;10516;51.518;9.864;2024-03-25T01:53:44;97613.81;;;4.85;86.78
20710;BME280;10516;51.518;9.864;2024-03-25T01:56:12;97608.31;;;4.87;86.54
20710;BME280;10516;51.518;9.864;2024-03-25T01:58:39;97608.31;;;4.87;85.86
20710;BME280;10516;51.518;9.864;2024-03-25T02:01:05;97528.50;;;4.18;86.65
20710;BME280;10516;51.518;9.864;2024-03-25T02:03:31;97599.56;;;4.86;85.95
20710;BME280;10516;51.518;9.864;2024-03-25T02:05:59;97575.38;;;4.61;86.12
20710;BME280;10516;51.518;9.864;2024-03-25T02:08:26;97579.91;;;4.61;85.72
20710;BME280;10516;51.518;9.864;2024-03-25T02:10:54;97605.66;;;4.70;86.85
20710;BME280;10516;51.518;9.864;2024-03-25T02:13:21;97554.66;;;4.53;85.67
20710;BME280;10516;51.518;9.864;2024-03-25T02:15:46;97603.34;;;4.57;85.75
20710;BME280;10516;51.518;9.864;2024-03-25T02:18:12;97611.91;;;4.81;86.16
20710;BME280;10516;51.518;9.864;2024-03-25T02:20:37;97614.06;;;4.84;86.32
20710;BME280;10516;51.518;9.864;2024-03-25T02:23:03;97511.69;;;4.24;85.90
20710;BME280;10516;51.518;9.864;2024-03-25T02:25:31;97597.72;;;4.70;85.95
20710;BME280;10516;51.518;9.864;2024-03-25T02:27:57;97569.00;;;4.57;85.67
20710;BME280;10516;51.518;9.864;2024-03-25T02:30:23;97591.25;;;4.44;86.46
20710;BME280;10516;51.518;9.864;2024-03-25T02:32:48;97587.09;;;4.48;86.31
20710;BME280;10516;51.518;9.864;2024-03-25T02:35:15;97520.25;;;3.98;86.25
20710;BME280;10516;51.518;9.864;2024-03-25T02:37:42;97591.09;;;4.51;85.99
20710;BME280;10516;51.518;9.864;2024-03-25T02:40:08;97594.75;;;4.50;85.68
20710;BME280;10516;51.518;9.864;2024-03-25T02:42:35;97610.72;;;4.72;86.07
20710;BME280;10516;51.518;9.864;2024-03-25T02:45:02;97623.44;;;4.75;86.01
20710;BME280;10516;51.518;9.864;2024-03-25T02:47:27;97631.78;;;4.67;86.43
20710;BME280;10516;51.518;9.864;2024-03-25T02:49:53;97573.63;;;4.33;86.02
20710;BME280;10516;51.518;9.864;2024-03-25T02:52:19;97622.72;;;4.63;86.12
20710;BME280;10516;51.518;9.864;2024-03-25T02:54:44;97630.06;;;4.44;86.83
20710;BME280;10516;51.518;9.864;2024-03-25T02:57:10;97632.97;;;4.59;86.28
20710;BME280;10516;51.518;9.864;2024-03-25T02:59:35;97539.22;;;3.95;86.94
20710;BME280;10516;51.518;9.864;2024-03-25T03:02:00;97539.63;;;4.04;86.45
20710;BME280;10516;51.518;9.864;2024-03-25T03:04:26;97640.06;;;4.25;87.77
20710;BME280;10516;51.518;9.864;2024-03-25T03:06:51;97638.09;;;4.66;86.22
20710;BME280;10516;51.518;9.864;2024-03-25T03:09:16;97651.94;;;4.73;86.31
20710;BME280;10516;51.518;9.864;2024-03-25T03:11:42;97633.88;;;4.65;86.57
20710;BME280;10516;51.518;9.864;2024-03-25T03:14:07;97649.97;;;4.80;86.21
20710;BME280;10516;51.518;9.864;2024-03-25T03:16:33;97611.44;;;4.50;86.28
20710;BME280;10516;51.518;9.864;2024-03-25T03:18:58;97602.69;;;4.33;87.76
20710;BME280;10516;51.518;9.864;2024-03-25T03:21:27;97647.22;;;4.58;87.36
20710;BME280;10516;51.518;9.864;2024-03-25T03:23:52;97620.78;;;4.41;87.43
20710;BME280;10516;51.518;9.864;2024-03-25T03:26:18;97671.00;;;4.58;87.98
20710;BME280;10516;51.518;9.864;2024-03-25T03:28:43;97663.91;;;4.59;87.88
20710;BME280;10516;51.518;9.864;2024-03-25T03:31:09;97676.03;;;4.60;87.65
20710;BME280;10516;51.518;9.864;2024-03-25T03:33:35;97660.63;;;4.23;88.59
20710;BME280;10516;51.518;9.864;2024-03-25T03:36:02;97691.09;;;4.59;87.67
20710;BME280;10516;51.518;9.864;2024-03-25T03:38:29;97693.66;;;4.54;88.22
20710;BME280;10516;51.518;9.864;2024-03-25T03:41:04;97681.06;;;4.28;87.84
20710;BME280;10516;51.518;9.864;2024-03-25T03:43:29;97678.91;;;4.41;88.16
20710;BME280;10516;51.518;9.864;2024-03-25T03:45:55;97647.66;;;4.22;87.53
20710;BME280;10516;51.518;9.864;2024-03-25T03:48:20;97608.31;;;3.92;86.66
20710;BME280;10516;51.518;9.864;2024-03-25T03:50:45;97639.00;;;4.10;88.28
20710;BME280;10516;51.518;9.864;2024-03-25T03:53:11;97653.47;;;4.07;88.15
20710;BME280;10516;51.518;9.864;2024-03-25T03:55:37;97666.63;;;4.19;87.67
20710;BME280;10516;51.518;9.864;2024-03-25T03:58:03;97634.13;;;3.90;87.45
20710;BME280;10516;51.518;9.864;2024-03-25T04:00:29;97700.13;;;4.46;87.34
20710;BME280;10516;51.518;9.864;2024-03-25T04:02:54;97598.97;;;3.73;87.84
20710;BME280;10516;51.518;9.864;2024-03-25T04:05:20;97698.53;;;4.45;87.92
20710;BME280;10516;51.518;9.864;2024-03-25T04:07:45;97607.53;;;3.80;87.30
20710;BME280;10516;51.518;9.864;2024-03-25T04:10:11;97614.28;;;3.88;87.88
20710;BME280;10516;51.518;9.864;2024-03-25T04:12:36;97692.59;;;4.38;86.99
20710;BME280;10516;51.518;9.864;2024-03-25T04:15:03;97677.69;;;4.32;86.75
20710;BME280;10516;51.518;9.864;2024-03-25T04:17:29;97698.41;;;4.52;86.62
20710;BME280;10516;51.518;9.864;2024-03-25T04:19:54;97686.97;;;4.35;86.60
20710;BME280;10516;51.518;9.864;2024-03-25T04:22:19;97700.38;;;4.45;87.39
20710;BME280;10516;51.518;9.864;2024-03-25T04:24:45;97650.84;;;4.24;87.00
20710;BME280;10516;51.518;9.864;2024-03-25T04:27:10;97674.91;;;4.39;86.88
20710;BME280;10516;51.518;9.864;2024-03-25T04:29:35;97690.03;;;4.43;86.67
20710;BME280;10516;51.518;9.864;2024-03-25T04:32:01;97707.25;;;4.46;87.41
20710;BME280;10516;51.518;9.864;2024-03-25T04:34:28;97710.53;;;4.53;87.33
20710;BME280;10516;51.518;9.864;2024-03-25T04:36:53;97678.19;;;4.46;87.26
20710;BME280;10516;51.518;9.864;2024-03-25T04:39:19;97692.19;;;4.46;87.32
20710;BME280;10516;51.518;9.864;2024-03-25T04:41:44;97708.41;;;4.67;87.10
20710;BME280;10516;51.518;9.864;2024-03-25T04:44:10;97693.53;;;4.61;86.64
20710;BME280;10516;51.518;9.864;2024-03-25T04:46:35;97688.00;;;4.62;86.71
20710;BME280;10516;51.518;9.864;2024-03-25T04:49:00;97718.41;;;4.65;88.14
20710;BME280;10516;51.518;9.864;2024-03-25T04:51:26;97673.31;;;4.54;86.08
20710;BME280;10516;51.518;9.864;2024-03-25T04:53:52;97714.38;;;4.45;87.78
20710;BME280;10516;51.518;9.864;2024-03-25T04:56:18;97735.97;;;4.87;87.03
20710;BME280;10516;51.518;9.864;2024-03-25T04:58:43;97668.56;;;4.40;86.54
20710;BME280;10516;51.518;9.864;2024-03-25T05:01:09;97691.06;;;4.26;87.53
20710;BME280;10516;51.518;9.864;2024-03-25T05:03:37;97724.63;;;4.02;90.46
20710;BME280;10516;51.518;9.864;2024-03-25T05:06:14;97742.63;;;4.73;88.16
20710;BME280;10516;51.518;9.864;2024-03-25T05:08:41;97703.06;;;4.05;90.30
20710;BME280;10516;51.518;9.864;2024-03-25T05:11:14;97746.50;;;4.26;90.53
20710;BME280;10516;51.518;9.864;2024-03-25T05:14:02;97741.00;;;4.72;88.61
20710;BME280;10516;51.518;9.864;2024-03-25T05:16:52;97752.28;;;4.39;88.58
20710;BME280;10516;51.518;9.864;2024-03-25T05:19:18;97749.28;;;4.47;89.57
20710;BME280;10516;51.518;9.864;2024-03-25T05:21:48;97746.94;;;4.34;88.70
20710;BME280;10516;51.518;9.864;2024-03-25T05:24:31;97753.53;;;3.69;92.21
20710;BME280;10516;51.518;9.864;2024-03-25T05:27:11;97779.50;;;4.00;94.03
20710;BME280;10516;51.518;9.864;2024-03-25T05:29:46;97783.50;;;4.82;90.58
20710;BME280;10516;51.518;9.864;2024-03-25T05:32:12;97724.91;;;4.29;89.02
20710;BME280;10516;51.518;9.864;2024-03-25T05:34:38;97801.44;;;4.52;89.51
20710;BME280;10516;51.518;9.864;2024-03-25T05:37:04;97765.38;;;4.46;90.50
20710;BME280;10516;51.518;9.864;2024-03-25T05:39:29;97791.28;;;4.61;89.89
20710;BME280;10516;51.518;9.864;2024-03-25T05:41:55;97767.84;;;4.24;89.38
20710;BME280;10516;51.518;9.864;2024-03-25T05:44:20;97797.44;;;4.38;90.49
20710;BME280;10516;51.518;9.864;2024-03-25T05:46:45;97803.19;;;4.35;90.14
20710;BME280;10516;51.518;9.864;2024-03-25T05:49:11;97808.72;;;4.22;88.80
20710;BME280;10516;51.518;9.864;2024-03-25T05:51:36;97793.31;;;4.30;89.29
20710;BME280;10516;51.518;9.864;2024-03-25T05:54:02;97791.28;;;4.61;88.23
20710;BME280;10516;51.518;9.864;2024-03-25T05:56:27;97777.31;;;4.48;88.14
20710;BME280;10516;51.518;9.864;2024-03-25T05:58:57;97802.69;;;4.49;88.42
20710;BME280;10516;51.518;9.864;2024-03-25T06:01:26;97807.72;;;4.11;88.33
20710;BME280;10516;51.518;9.864;2024-03-25T06:03:52;97811.63;;;4.20;88.68
20710;BME280;10516;51.518;9.864;2024-03-25T06:06:18;97810.47;;;4.16;89.79
20710;BME280;10516;51.518;9.864;2024-03-25T06:08:43;97777.81;;;3.94;89.70
20710;BME280;10516;51.518;9.864;2024-03-25T06:11:09;97737.75;;;3.97;88.58
20710;BME280;10516;51.518;9.864;2024-03-25T06:13:34;97816.53;;;4.68;87.56
20710;BME280;10516;51.518;9.864;2024-03-25T06:16:00;97732.28;;;4.15;87.89
20710;BME280;10516;51.518;9.864;2024-03-25T06:18:25;97759.34;;;4.34;87.84
20710;BME280;10516;51.518;9.864;2024-03-25T06:20:51;97734.09;;;4.26;87.83
20710;BME280;10516;51.518;9.864;2024-03-25T06:23:26;97832.72;;;4.32;89.28
20710;BME280;10516;51.518;9.864;2024-03-25T06:25:53;97811.78;;;4.70;87.80
20710;BME280;10516;51.518;9.864;2024-03-25T06:28:19;97830.22;;;4.65;87.65
20710;BME280;10516;51.518;9.864;2024-03-25T06:30:48;97837.13;;;4.83;87.59
20710;BME280;10516;51.518;9.864;2024-03-25T06:33:32;97839.50;;;4.68;88.72
20710;BME280;10516;51.518;9.864;2024-03-25T06:36:16;97774.50;;;3.75;89.94
20710;BME280;10516;51.518;9.864;2024-03-25T06:38:42;97791.38;;;3.86;91.20
20710;BME280;10516;51.518;9.864;2024-03-25T06:41:07;97814.00;;;4.22;90.73
20710;BME280;10516;51.518;9.864;2024-03-25T06:43:33;97839.94;;;4.36;90.93
20710;BME280;10516;51.518;9.864;2024-03-25T06:45:58;97722.09;;;4.07;88.90
20710;BME280;10516;51.518;9.864;2024-03-25T06:48:23;97830.53;;;4.97;89.26
20710;BME280;10516;51.518;9.864;2024-03-25T06:50:56;97754.78;;;4.46;88.06
20710;BME280;10516;51.518;9.864;2024-03-25T06:53:21;97836.25;;;5.05;87.85
20710;BME280;10516;51.518;9.864;2024-03-25T06:55:58;97788.16;;;4.64;87.84
20710;BME280;10516;51.518;9.864;2024-03-25T06:58:25;97826.16;;;5.19;87.25
20710;BME280;10516;51.518;9.864;2024-03-25T07:00:51;97841.47;;;5.17;86.95
20710;BME280;10516;51.518;9.864;2024-03-25T07:03:18;97783.13;;;4.79;87.00
20710;BME280;10516;51.518;9.864;2024-03-25T07:05:47;97769.75;;;4.69;87.42
20710;BME280;10516;51.518;9.864;2024-03-25T07:08:14;97802.00;;;4.99;87.02
20710;BME280;10516;51.518;9.864;2024-03-25T07:10:43;97831.13;;;5.15;85.96
20710;BME280;10516;51.518;9.864;2024-03-25T07:13:08;97860.16;;;5.27;86.63
20710;BME280;10516;51.518;9.864;2024-03-25T07:15:33;97844.94;;;5.17;86.20
20710;BME280;10516;51.518;9.864;2024-03-25T07:17:59;97784.13;;;4.33;88.08
20710;BME280;10516;51.518;9.864;2024-03-25T07:20:25;97877.09;;;5.26;87.00
20710;BME280;10516;51.518;9.864;2024-03-25T07:22:52;97869.03;;;5.21;86.61
20710;BME280;10516;51.518;9.864;2024-03-25T07:25:20;97853.88;;;5.00;86.80
20710;BME280;10516;51.518;9.864;2024-03-25T07:27:45;97874.19;;;5.27;86.56
20710;BME280;10516;51.518;9.864;2024-03-25T07:30:10;97803.38;;;4.85;87.19
20710;BME280;10516;51.518;9.864;2024-03-25T07:32:36;97843.47;;;5.26;86.98
20710;BME280;10516;51.518;9.864;2024-03-25T07:35:01;97828.63;;;5.09;85.93
20710;BME280;10516;51.518;9.864;2024-03-25T07:37:27;97879.53;;;5.61;85.59
20710;BME280;10516;51.518;9.864;2024-03-25T07:39:52;97883.75;;;5.62;85.01
20710;BME280;10516;51.518;9.864;2024-03-25T07:42:18;97888.91;;;5.52;86.99
20710;BME280;10516;51.518;9.864;2024-03-25T07:44:44;97802.97;;;4.65;86.49
20710;BME280;10516;51.518;9.864;2024-03-25T07:47:09;97886.66;;;5.60;86.54
20710;BME280;10516;51.518;9.864;2024-03-25T07:49:35;97801.91;;;4.94;87.05
20710;BME280;10516;51.518;9.864;2024-03-25T07:52:00;97884.16;;;5.54;87.32
20710;BME280;10516;51.518;9.864;2024-03-25T07:54:26;97790.22;;;4.90;87.45
20710;BME280;10516;51.518;9.864;2024-03-25T07:56:52;97908.34;;;5.29;88.25
20710;BME280;10516;51.518;9.864;2024-03-25T07:59:18;97894.63;;;5.32;87.91
20710;BME280;10516;51.518;9.864;2024-03-25T08:01:44;97894.69;;;5.65;86.95
20710;BME280;10516;51.518;9.864;2024-03-25T08:04:09;97896.63;;;5.70;86.87
20710;BME280;10516;51.518;9.864;2024-03-25T08:06:35;97888.97;;;5.73;85.62
20710;BME280;10516;51.518;9.864;2024-03-25T08:09:00;97893.28;;;5.46;86.27
20710;BME280;10516;51.518;9.864;2024-03-25T08:11:25;97874.69;;;5.41;87.06
20710;BME280;10516;51.518;9.864;2024-03-25T08:13:51;97888.59;;;5.48;87.32
20710;BME280;10516;51.518;9.864;2024-03-25T08:16:17;97812.03;;;5.13;86.48
20710;BME280;10516;51.518;9.864;2024-03-25T08:18:42;97887.28;;;5.51;86.41
20710;BME280;10516;51.518;9.864;2024-03-25T08:21:07;97886.19;;;5.63;87.33
20710;BME280;10516;51.518;9.864;2024-03-25T08:23:33;97887.38;;;5.39;87.58
20710;BME280;10516;51.518;9.864;2024-03-25T08:25:58;97877.53;;;5.68;86.21
20710;BME280;10516;51.518;9.864;2024-03-25T08:28:25;97888.19;;;6.06;84.82
20710;BME280;10516;51.518;9.864;2024-03-25T08:30:51;97823.44;;;5.47;84.63
20710;BME280;10516;51.518;9.864;2024-03-25T08:33:16;97899.47;;;5.68;85.69
20710;BME280;10516;51.518;9.864;2024-03-25T08:35:41;97901.75;;;5.76;85.67
20710;BME280;10516;51.518;9.864;2024-03-25T08:38:07;97905.28;;;6.15;84.82
20710;BME280;10516;51.518;9.864;2024-03-25T08:40:33;97821.69;;;5.69;84.98
20710;BME280;10516;51.518;9.864;2024-03-25T08:42:58;97889.06;;;6.12;84.05
20710;BME280;10516;51.518;9.864;2024-03-25T08:45:24;97885.28;;;6.07;84.07
20710;BME280;10516;51.518;9.864;2024-03-25T08:47:50;97915.88;;;5.98;85.71
20710;BME280;10516;51.518;9.864;2024-03-25T08:50:15;97891.47;;;6.13;84.21
20710;BME280;10516;51.518;9.864;2024-03-25T08:52:40;97829.28;;;5.66;86.28
20710;BME280;10516;51.518;9.864;2024-03-25T08:55:06;97904.34;;;6.04;84.22
20710;BME280;10516;51.518;9.864;2024-03-25T08:57:31;97881.28;;;6.22;83.18
20710;BME280;10516;51.518;9.864;2024-03-25T08:59:57;97893.78;;;6.26;83.88
20710;BME280;10516;51.518;9.864;2024-03-25T09:02:22;97915.28;;;6.46;82.96
20710;BME280;10516;51.518;9.864;2024-03-25T09:04:47;97926.34;;;6.43;82.74
20710;BME280;10516;51.518;9.864;2024-03-25T09:07:16;97922.63;;;6.61;82.84
20710;BME280;10516;51.518;9.864;2024-03-25T09:09:41;97836.38;;;5.93;83.17
20710;BME280;10516;51.518;9.864;2024-03-25T09:12:25;97894.78;;;6.20;83.47
20710;BME280;10516;51.518;9.864;2024-03-25T09:14:51;97921.94;;;6.32;83.09
20710;BME280;10516;51.518;9.864;2024-03-25T09:17:16;97886.75;;;5.98;83.03
20710;BME280;10516;51.518;9.864;2024-03-25T09:19:42;97925.38;;;6.49;83.38
20710;BME280;10516;51.518;9.864;2024-03-25T09:22:08;97901.41;;;6.23;82.77
20710;BME280;10516;51.518;9.864;2024-03-25T09:24:33;97839.03;;;5.93;82.97
20710;BME280;10516;51.518;9.864;2024-03-25T09:26:58;97923.16;;;6.41;82.16
20710;BME280;10516;51.518;9.864;2024-03-25T09:29:24;97922.78;;;6.54;82.06
20710;BME280;10516;51.518;9.864;2024-03-25T09:31:49;97934.34;;;6.87;82.25
20710;BME280;10516;51.518;9.864;2024-03-25T09:34:14;97892.19;;;6.47;81.43
20710;BME280;10516;51.518;9.864;2024-03-25T09:36:40;97866.56;;;6.31;82.02
20710;BME280;10516;51.518;9.864;2024-03-25T09:39:05;97909.72;;;6.48;82.04
20710;BME280;10516;51.518;9.864;2024-03-25T09:41:34;97835.03;;;6.13;81.26
20710;BME280;10516;51.518;9.864;2024-03-25T09:44:01;97908.72;;;6.54;81.29
20710;BME280;10516;51.518;9.864;2024-03-25T09:46:30;97865.47;;;6.10;80.59
20710;BME280;10516;51.518;9.864;2024-03-25T09:48:55;97921.44;;;6.52;81.03
20710;BME280;10516;51.518;9.864;2024-03-25T09:51:21;97917.22;;;6.34;79.54
20710;BME280;10516;51.518;9.864;2024-03-25T09:53:47;97817.66;;;6.00;81.39
20710;BME280;10516;51.518;9.864;2024-03-25T09:56:16;97887.31;;;6.77;80.94
20710;BME280;10516;51.518;9.864;2024-03-25T09:58:41;97902.88;;;6.73;80.76
20710;BME280;10516;51.518;9.864;2024-03-25T10:01:09;97907.25;;;6.63;81.04
20710;BME280;10516;51.518;9.864;2024-03-25T10:03:34;97927.19;;;6.87;80.94
20710;BME280;10516;51.518;9.864;2024-03-25T10:05:59;97841.88;;;6.09;79.29
20710;BME280;10516;51.518;9.864;2024-03-25T10:08:25;97916.56;;;6.87;80.42
20710;BME280;10516;51.518;9.864;2024-03-25T10:10:55;97897.38;;;6.80;79.38
20710;BME280;10516;51.518;9.864;2024-03-25T10:13:21;97921.31;;;6.85;78.70
20710;BME280;10516;51.518;9.864;2024-03-25T10:15:47;97917.13;;;6.46;78.00
20710;BME280;10516;51.518;9.864;2024-03-25T10:18:13;97885.97;;;6.58;78.93
20710;BME280;10516;51.518;9.864;2024-03-25T10:20:48;97908.69;;;7.19;79.75
20710;BME280;10516;51.518;9.864;2024-03-25T10:23:14;97910.59;;;7.23;79.14
20710;BME280;10516;51.518;9.864;2024-03-25T10:25:40;97906.69;;;7.04;80.21
20710;BME280;10516;51.518;9.864;2024-03-25T10:28:05;97885.81;;;7.13;79.57
20710;BME280;10516;51.518;9.864;2024-03-25T10:30:31;97881.38;;;7.18;78.96
20710;BME280;10516;51.518;9.864;2024-03-25T10:33:06;97905.50;;;7.43;78.81
20710;BME280;10516;51.518;9.864;2024-03-25T10:35:33;97906.31;;;7.44;77.93
20710;BME280;10516;51.518;9.864;2024-03-25T10:38:07;97906.00;;;7.40;78.22
20710;BME280;10516;51.518;9.864;2024-03-25T10:40:36;97927.81;;;7.42;77.74
20710;BME280;10516;51.518;9.864;2024-03-25T10:43:03;97910.81;;;7.43;78.48
20710;BME280;10516;51.518;9.864;2024-03-25T10:45:34;97900.84;;;7.55;77.37
20710;BME280;10516;51.518;9.864;2024-03-25T10:48:30;97828.06;;;7.20;77.29
20710;BME280;10516;51.518;9.864;2024-03-25T10:50:56;97902.53;;;7.67;77.26
20710;BME280;10516;51.518;9.864;2024-03-25T10:53:28;97896.44;;;7.71;77.61
20710;BME280;10516;51.518;9.864;2024-03-25T10:55:54;97891.41;;;7.70;76.77
20710;BME280;10516;51.518;9.864;2024-03-25T10:58:23;97822.75;;;7.20;76.93
20710;BME280;10516;51.518;9.864;2024-03-25T11:00:51;97891.94;;;7.72;76.50
20710;BME280;10516;51.518;9.864;2024-03-25T11:03:17;97886.75;;;7.87;75.01
20710;BME280;10516;51.518;9.864;2024-03-25T11:05:45;97810.47;;;7.45;75.16
20710;BME280;10516;51.518;9.864;2024-03-25T11:08:15;97868.69;;;7.89;75.04
20710;BME280;10516;51.518;9.864;2024-03-25T11:10:41;97889.97;;;7.89;75.38
20710;BME280;10516;51.518;9.864;2024-03-25T11:13:14;97847.00;;;7.65;75.96
20710;BME280;10516;51.518;9.864;2024-03-25T11:15:44;97881.53;;;7.97;74.32
20710;BME280;10516;51.518;9.864;2024-03-25T11:18:14;97876.28;;;8.07;74.13
20710;BME280;10516;51.518;9.864;2024-03-25T11:20:40;97852.84;;;7.99;73.66
20710;BME280;10516;51.518;9.864;2024-03-25T11:23:10;97872.84;;;8.11;74.28
20710;BME280;10516;51.518;9.864;2024-03-25T11:25:36;97858.66;;;7.96;73.53
20710;BME280;10516;51.518;9.864;2024-03-25T11:28:02;97822.47;;;7.85;74.36
20710;BME280;10516;51.518;9.864;2024-03-25T11:30:28;97779.28;;;7.63;71.82
20710;BME280;10516;51.518;9.864;2024-03-25T11:32:55;97871.69;;;7.97;73.48
20710;BME280;10516;51.518;9.864;2024-03-25T11:35:21;97846.16;;;7.91;72.97
20710;BME280;10516;51.518;9.864;2024-03-25T11:37:46;97866.00;;;8.20;72.42
20710;BME280;10516;51.518;9.864;2024-03-25T11:40:13;97816.41;;;7.94;71.61
20710;BME280;10516;51.518;9.864;2024-03-25T11:42:43;97834.25;;;8.04;71.38
20710;BME280;10516;51.518;9.864;2024-03-25T11:45:16;97832.81;;;8.23;71.81
20710;BME280;10516;51.518;9.864;2024-03-25T11:47:42;97847.31;;;8.47;72.03
20710;BME280;10516;51.518;9.864;2024-03-25T11:50:09;97787.69;;;7.91;73.23
20710;BME280;10516;51.518;9.864;2024-03-25T11:52:34;97780.72;;;7.80;72.50
20710;BME280;10516;51.518;9.864;2024-03-25T11:55:00;97862.97;;;8.39;71.23
20710;BME280;10516;51.518;9.864;2024-03-25T11:57:28;97850.94;;;8.31;71.31
20710;BME280;10516;51.518;9.864;2024-03-25T11:59:53;97849.84;;;8.27;71.99
20710;BME280;10516;51.518;9.864;2024-03-25T12:02:19;97826.13;;;8.20;70.96
20710;BME280;10516;51.518;9.864;2024-03-25T12:04:44;97766.13;;;7.83;71.40
20710;BME280;10516;51.518;9.864;2024-03-25T12:07:12;97866.53;;;8.22;72.24
20710;BME280;10516;51.518;9.864;2024-03-25T12:09:37;97840.19;;;8.16;70.93
20710;BME280;10516;51.518;9.864;2024-03-25T12:12:21;97857.88;;;8.32;71.42
20710;BME280;10516;51.518;9.864;2024-03-25T12:14:47;97841.38;;;8.35;71.84
20710;BME280;10516;51.518;9.864;2024-03-25T12:17:13;97798.28;;;8.28;70.03
20710;BME280;10516;51.518;9.864;2024-03-25T12:19:39;97775.63;;;8.20;69.94
20710;BME280;10516;51.518;9.864;2024-03-25T12:22:06;97839.22;;;8.94;69.52
20710;BME280;10516;51.518;9.864;2024-03-25T12:24:33;97752.06;;;8.39;67.78
20710;BME280;10516;51.518;9.864;2024-03-25T12:26:58;97743.31;;;8.44;70.38
20710;BME280;10516;51.518;9.864;2024-03-25T12:29:24;97746.28;;;8.57;68.36
20710;BME280;10516;51.518;9.864;2024-03-25T12:31:56;97828.63;;;9.24;66.63
20710;BME280;10516;51.518;9.864;2024-03-25T12:34:22;97789.75;;;9.18;68.16
20710;BME280;10516;51.518;9.864;2024-03-25T12:36:48;97801.47;;;9.27;67.66
20710;BME280;10516;51.518;9.864;2024-03-25T12:39:17;97766.31;;;9.20;67.28
20710;BME280;10516;51.518;9.864;2024-03-25T12:41:44;97787.88;;;9.29;68.59
20710;BME280;10516;51.518;9.864;2024-03-25T12:44:12;97790.03;;;9.42;65.83
20710;BME280;10516;51.518;9.864;2024-03-25T12:46:37;97761.81;;;9.11;64.67
20710;BME280;10516;51.518;9.864;2024-03-25T12:49:04;97726.94;;;9.17;68.43
20710;BME280;10516;51.518;9.864;2024-03-25T12:51:29;97782.03;;;9.57;66.75
20710;BME280;10516;51.518;9.864;2024-03-25T12:53:55;97808.41;;;9.53;66.58
20710;BME280;10516;51.518;9.864;2024-03-25T12:56:20;97803.88;;;9.54;67.96
20710;BME280;10516;51.518;9.864;2024-03-25T12:58:45;97710.72;;;9.09;65.55
20710;BME280;10516;51.518;9.864;2024-03-25T13:01:11;97795.34;;;9.87;65.52
20710;BME280;10516;51.518;9.864;2024-03-25T13:03:36;97792.94;;;9.80;64.65
20710;BME280;10516;51.518;9.864;2024-03-25T13:06:01;97793.72;;;9.91;66.31
20710;BME280;10516;51.518;9.864;2024-03-25T13:08:27;97796.34;;;10.26;65.34